Time;durP1;ratioP1;P1;durP2;ratioP2;P2;SDS_P1;SDS_P2;PMS_P1;PMS_P2;Temp;Humidity;BMP_temperature;BMP_pressure;BME280_temperature;BME280_humidity;BME280_pressure;Samples;Min_cycle;Max_cycle;Signal;HPM_P1;HPM_P2
2022/04/26 03:37:41;;;;;;;11.80;4.35;;;10.80;64.00;;;;;;5018048;28;20099;-77
2022/04/26 03:40:08;;;;;;;13.35;4.32;;;10.80;64.00;;;;;;5014979;28;20099;-77
2022/04/26 03:42:35;;;;;;;9.20;3.22;;;10.90;64.00;;;;;;5033095;28;20073;-78
2022/04/26 03:45:01;;;;;;;5.90;2.15;;;10.90;64.20;;;;;;5030869;28;20033;-78
2022/04/26 03:47:27;;;;;;;4.47;2.00;;;10.90;64.20;;;;;;5031085;28;20080;-77
2022/04/26 03:49:53;;;;;;;5.63;1.65;;;11.00;64.30;;;;;;5031735;28;20057;-77
2022/04/26 03:52:21;;;;;;;7.38;2.08;;;11.00;64.30;;;;;;5014385;28;20037;-78
2022/04/26 03:54:47;;;;;;;7.53;2.20;;;11.00;63.80;;;;;;5032722;28;20057;-78
2022/04/26 03:57:13;;;;;;;10.02;3.08;;;11.00;64.60;;;;;;5032361;28;20045;-76
2022/04/26 03:59:39;;;;;;;6.40;1.92;;;11.00;64.80;;;;;;5014317;28;20441;-78
2022/04/26 04:02:05;;;;;;;6.72;2.00;;;11.10;64.90;;;;;;5030989;28;20393;-78
2022/04/26 04:04:31;;;;;;;6.25;2.47;;;11.10;64.80;;;;;;5031451;28;20046;-78
2022/04/26 04:06:57;;;;;;;7.20;2.20;;;11.10;64.80;;;;;;5030959;28;20044;-76
2022/04/26 04:09:23;;;;;;;8.15;3.17;;;11.10;65.00;;;;;;5014755;28;20029;-78
2022/04/26 04:11:49;;;;;;;13.95;3.33;;;11.20;65.00;;;;;;5031987;28;20526;-76
2022/04/26 04:14:15;;;;;;;8.65;2.95;;;11.20;65.10;;;;;;5031805;28;20068;-78
2022/04/26 04:16:42;;;;;;;6.10;2.30;;;11.20;65.20;;;;;;5014413;28;20029;-77
2022/04/26 04:19:23;;;;;;;11.15;3.33;;;11.20;65.00;;;;;;5006585;28;20108;-78
2022/04/26 04:21:51;;;;;;;7.38;2.70;;;11.20;65.00;;;;;;5031968;28;20034;-78
2022/04/26 04:24:19;;;;;;;7.35;3.10;;;11.20;65.20;;;;;;5014648;28;20034;-78
2022/04/26 04:26:46;;;;;;;6.75;2.88;;;11.20;65.30;;;;;;5014307;28;20062;-78
2022/04/26 04:29:13;;;;;;;8.95;2.75;;;11.20;65.50;;;;;;5013930;28;20042;-78
2022/04/26 04:31:39;;;;;;;7.63;2.92;;;11.10;65.50;;;;;;5014183;28;20375;-78
2022/04/26 04:34:06;;;;;;;6.70;2.97;;;11.10;65.80;;;;;;5043177;28;20134;-76
2022/04/26 04:36:32;;;;;;;17.73;4.53;;;11.10;66.00;;;;;;5058019;28;20033;-76
2022/04/26 04:38:58;;;;;;;5.63;2.65;;;11.00;66.10;;;;;;5076754;28;20059;-78
2022/04/26 04:41:24;;;;;;;;;;;11.00;66.10;;;;;;5076365;28;20485;-77
2022/04/26 04:43:51;;;;;;;10.18;3.90;;;11.00;65.30;;;;;;5041556;28;19925;-78
2022/04/26 04:46:17;;;;;;;15.30;3.65;;;11.00;65.70;;;;;;5040043;28;20571;-78
2022/04/26 04:48:43;;;;;;;9.48;2.80;;;11.00;66.00;;;;;;5076327;28;20048;-76
2022/04/26 04:51:09;;;;;;;6.95;3.00;;;11.00;66.20;;;;;;5057687;28;20450;-78
2022/04/26 04:53:35;;;;;;;8.52;3.53;;;11.00;66.20;;;;;;5058156;28;20051;-78
2022/04/26 04:56:02;;;;;;;9.80;3.85;;;11.00;66.10;;;;;;5057672;28;20074;-76
2022/04/26 04:58:28;;;;;;;26.60;11.65;;;11.00;65.90;;;;;;5058376;28;20063;-78
2022/04/26 05:00:54;;;;;;;51.70;22.17;;;11.10;65.80;;;;;;5056624;28;20024;-76
2022/04/26 05:03:21;;;;;;;15.55;7.05;;;11.20;65.50;;;;;;5076144;28;20051;-76
2022/04/26 05:05:47;;;;;;;13.77;5.30;;;11.30;65.50;;;;;;5057609;28;20427;-76
2022/04/26 05:08:13;;;;;;;11.50;4.70;;;11.40;65.30;;;;;;5058051;28;20040;-76
2022/04/26 05:10:40;;;;;;;7.35;3.75;;;11.40;65.20;;;;;;5075345;28;20493;-78
2022/04/26 05:13:07;;;;;;;7.85;3.47;;;11.50;64.70;;;;;;5075455;28;20048;-76
2022/04/26 05:15:33;;;;;;;8.75;3.17;;;11.60;65.30;;;;;;5039844;28;20086;-78
2022/04/26 05:17:59;;;;;;;9.45;4.40;;;11.70;65.40;;;;;;5075858;28;20124;-78
2022/04/26 05:20:25;;;;;;;8.55;4.30;;;11.70;65.20;;;;;;5075140;28;20441;-78
2022/04/26 05:25:37;;;;;;;9.23;4.80;;;11.90;64.80;;;;;;5075197;28;20036;-76
2022/04/26 05:28:04;;;;;;;7.85;4.40;;;12.00;64.60;;;;;;5056873;28;20091;-78
2022/04/26 05:30:30;;;;;;;7.45;3.78;;;12.10;64.50;;;;;;5056035;28;20131;-76
2022/04/26 05:32:56;;;;;;;;;;;12.30;64.60;;;;;;5057725;28;20066;-78
2022/04/26 05:35:22;;;;;;;9.93;3.95;;;12.40;64.10;;;;;;5074872;28;19916;-76
2022/04/26 05:37:49;;;;;;;;;;;12.50;63.90;;;;;;5057944;28;20500;-78
2022/04/26 05:40:15;;;;;;;20.02;7.68;;;12.60;63.30;;;;;;5056845;28;20388;-77
2022/04/26 05:42:41;;;;;;;;;;;12.70;63.40;;;;;;5057505;28;20045;-78
2022/04/26 05:45:08;;;;;;;13.43;8.50;;;12.80;63.00;;;;;;5055989;28;19920;-78
2022/04/26 05:47:33;;;;;;;;;;;13.00;62.30;;;;;;5057687;28;20055;-77
2022/04/26 05:50:00;;;;;;;6.82;3.58;;;13.10;62.70;;;;;;5040477;28;19912;-75
2022/04/26 05:52:26;;;;;;;6.63;3.15;;;13.20;62.70;;;;;;5074520;28;20546;-78
2022/04/26 05:54:52;;;;;;;;;;;13.40;62.70;;;;;;5040886;28;20584;-77
2022/04/26 05:57:18;;;;;;;6.72;3.15;;;13.50;62.30;;;;;;5074682;28;19924;-75
2022/04/26 05:59:44;;;;;;;9.50;3.22;;;13.70;62.10;;;;;;5056032;28;20037;-77
2022/04/26 06:02:11;;;;;;;16.17;3.38;;;13.80;62.00;;;;;;5056315;28;20072;-76
2022/04/26 06:04:38;;;;;;;7.85;3.30;;;14.10;61.90;;;;;;5074725;28;20033;-77
2022/04/26 06:07:05;;;;;;;6.97;3.05;;;14.30;61.50;;;;;;5074177;28;20090;-78
2022/04/26 06:09:31;;;;;;;9.00;2.55;;;14.50;61.20;;;;;;5056781;28;20442;-77
2022/04/26 06:11:58;;;;;;;5.10;2.45;;;14.70;60.50;;;;;;5056142;28;20024;-78
2022/04/26 06:14:24;;;;;;;5.90;2.25;;;14.80;59.20;;;;;;5039956;28;20036;-76
2022/04/26 06:16:51;;;;;;;;;;;14.90;59.80;;;;;;5055823;28;20270;-78
2022/04/26 06:19:17;;;;;;;7.37;2.97;;;15.00;59.90;;;;;;5074522;28;20400;-75
2022/04/26 06:21:43;;;;;;;6.18;2.17;;;15.00;59.70;;;;;;5055911;28;20032;-75
2022/04/26 06:24:09;;;;;;;5.45;1.90;;;15.00;59.80;;;;;;5039845;28;20055;-78
2022/04/26 06:26:35;;;;;;;4.72;1.60;;;15.00;59.80;;;;;;5073983;28;20590;-76
2022/04/26 06:29:01;;;;;;;3.78;1.70;;;14.90;59.70;;;;;;5056566;28;20053;-75
2022/04/26 06:31:27;;;;;;;4.78;2.03;;;14.90;59.50;;;;;;5054863;28;20036;-79
2022/04/26 06:33:53;;;;;;;6.13;1.90;;;14.90;59.40;;;;;;5056330;28;20101;-78
2022/04/26 06:36:20;;;;;;;4.65;2.15;;;14.80;59.30;;;;;;5073755;28;20032;-76
2022/04/26 06:38:46;;;;;;;;;;;14.90;59.30;;;;;;5057065;28;20291;-78
2022/04/26 06:41:12;;;;;;;5.03;2.00;;;14.90;59.30;;;;;;5055658;28;19957;-78
2022/04/26 06:43:38;;;;;;;5.57;2.30;;;14.90;58.80;;;;;;5074279;28;20128;-78
2022/04/26 06:46:05;;;;;;;7.63;2.10;;;14.90;58.90;;;;;;5054754;28;20047;-75
2022/04/26 06:48:31;;;;;;;4.57;2.17;;;14.80;58.80;;;;;;5074167;28;20124;-78
2022/04/26 06:50:57;;;;;;;6.22;3.80;;;14.80;58.90;;;;;;5055645;28;20028;-78
2022/04/26 06:53:24;;;;;;;5.63;2.20;;;14.70;59.00;;;;;;5055939;28;20041;-75
2022/04/26 06:55:50;;;;;;;4.43;1.88;;;14.70;58.30;;;;;;5054640;28;20033;-76
2022/04/26 06:58:17;;;;;;;5.82;2.38;;;14.70;59.00;;;;;;5055798;28;20047;-76
2022/04/26 07:00:43;;;;;;;6.55;2.25;;;14.60;58.90;;;;;;5054575;28;20036;-78
2022/04/26 07:03:09;;;;;;;8.90;2.50;;;14.60;59.00;;;;;;5055799;28;20040;-78
2022/04/26 07:05:35;;;;;;;8.02;2.75;;;14.60;59.20;;;;;;5073179;28;20033;-76
2022/04/26 07:08:02;;;;;;;8.13;2.42;;;14.60;58.60;;;;;;5055706;28;20417;-76
2022/04/26 07:10:31;;;;;;;7.65;2.85;;;14.60;58.60;;;;;;5055286;28;20032;-76
2022/04/26 07:12:57;;;;;;;6.53;2.58;;;14.60;59.40;;;;;;5056070;28;20045;-79
2022/04/26 07:15:24;;;;;;;6.18;3.10;;;14.60;59.30;;;;;;5071970;28;20025;-76
2022/04/26 07:17:51;;;;;;;7.22;2.53;;;14.60;59.10;;;;;;5073394;28;20492;-76
2022/04/26 07:20:17;;;;;;;10.88;3.50;;;14.70;59.00;;;;;;5055057;28;20111;-78
2022/04/26 07:22:43;;;;;;;6.03;2.50;;;14.70;58.90;;;;;;5055289;28;20090;-76
2022/04/26 07:25:10;;;;;;;5.00;2.30;;;14.80;58.60;;;;;;5054857;28;20032;-78
2022/04/26 07:27:36;;;;;;;;;;;14.90;57.70;;;;;;5055814;28;20389;-76
2022/04/26 07:30:04;;;;;;;5.80;2.55;;;15.00;58.10;;;;;;5038391;28;19916;-77
2022/04/26 07:35:15;;;;;;;8.90;4.38;;;15.20;57.90;;;;;;5057526;28;20052;-77
2022/04/26 07:37:42;;;;;;;7.35;3.42;;;15.30;57.70;;;;;;5055136;28;20058;-76
2022/04/26 07:40:12;;;;;;;7.80;3.42;;;15.40;56.90;;;;;;5054787;28;20082;-76
2022/04/26 07:42:38;;;;;;;6.75;3.05;;;15.50;57.30;;;;;;5055124;28;20616;-75
2022/04/26 07:45:05;;;;;;;5.47;2.38;;;15.70;57.30;;;;;;5038165;28;20472;-76
2022/04/26 07:47:32;;;;;;;7.80;2.90;;;15.70;57.00;;;;;;5053991;28;20452;-78
2022/04/26 07:49:59;;;;;;;5.35;2.58;;;15.80;56.30;;;;;;5038260;28;20033;-76
2022/04/26 07:52:28;;;;;;;6.85;2.42;;;15.90;56.00;;;;;;5054294;28;20109;-76
2022/04/26 07:54:54;;;;;;;7.32;2.47;;;16.10;56.30;;;;;;5055096;28;20380;-78
2022/04/26 07:57:21;;;;;;;5.47;2.30;;;16.10;55.80;;;;;;5037557;28;20036;-79
2022/04/26 07:59:47;;;;;;;;;;;16.30;55.40;;;;;;5073161;28;20100;-76
2022/04/26 08:02:13;;;;;;;7.70;3.22;;;16.50;55.60;;;;;;5071325;28;19921;-78
2022/04/26 08:04:41;;;;;;;6.75;3.03;;;16.70;54.80;;;;;;5054606;28;20052;-78
2022/04/26 08:07:08;;;;;;;9.93;3.88;;;16.80;54.30;;;;;;5072259;28;20044;-75
2022/04/26 08:09:38;;;;;;;6.22;2.70;;;17.00;53.50;;;;;;5054665;28;20033;-75
2022/04/26 08:12:04;;;;;;;6.60;2.70;;;17.00;53.10;;;;;;5072076;28;20050;-79
2022/04/26 08:14:30;;;;;;;6.30;2.65;;;17.20;52.70;;;;;;5054634;28;20052;-79
2022/04/26 08:16:57;;;;;;;6.00;2.40;;;17.30;53.10;;;;;;5053167;28;20082;-76
2022/04/26 08:19:23;;;;;;;7.22;3.22;;;17.30;52.90;;;;;;5054521;28;20064;-79
2022/04/26 08:21:49;;;;;;;7.03;2.63;;;17.40;53.00;;;;;;5072086;28;20039;-79
2022/04/26 08:30:07;;;;;;;7.20;2.92;;;18.60;51.70;;;;;;5072071;28;20036;-79
2022/04/26 08:32:51;;;;;;;6.22;3.25;;;18.80;50.50;;;;;;5071377;28;20037;-80
2022/04/26 08:35:23;;;;;;;9.07;3.47;;;19.10;51.50;;;;;;5071916;28;20530;-79
2022/04/26 08:37:50;;;;;;;8.00;3.33;;;20.20;49.40;;;;;;5054432;28;20397;-76
2022/04/26 08:40:16;;;;;;;9.18;3.25;;;21.30;48.20;;;;;;5037261;28;20078;-75
2022/04/26 08:42:46;;;;;;;5.85;2.70;;;22.40;46.10;;;;;;5072170;28;20553;-80
2022/04/26 08:45:31;;;;;;;7.25;2.50;;;23.40;43.80;;;;;;5053879;28;20060;-76
2022/04/26 08:51:00;;;;;;;5.55;2.50;;;25.40;41.30;;;;;;5071913;28;20507;-81
2022/04/26 08:53:28;;;;;;;5.50;2.40;;;26.50;38.30;;;;;;5072442;28;20045;-76
2022/04/26 08:56:16;;;;;;;4.68;2.05;;;27.30;36.10;;;;;;5053873;28;20039;-77
2022/04/26 08:58:43;;;;;;;4.63;2.15;;;28.30;36.00;;;;;;5054283;28;20037;-79
2022/04/26 09:01:29;;;;;;;5.97;2.65;;;29.20;33.40;;;;;;5053365;28;20033;-77
2022/04/26 09:03:58;;;;;;;7.30;2.00;;;30.00;32.80;;;;;;5054399;28;20036;-79
2022/04/26 09:06:44;;;;;;;4.80;2.20;;;30.70;29.90;;;;;;5053632;28;20033;-78
2022/04/26 09:09:30;;;;;;;7.13;2.47;;;31.20;29.30;;;;;;5037414;28;20401;-76
2022/04/26 09:12:15;;;;;;;5.70;2.20;;;32.00;28.50;;;;;;5053666;28;20036;-77
2022/04/26 09:17:27;;;;;;;5.07;2.13;;;33.20;25.40;;;;;;5055451;28;20455;-75
2022/04/26 09:19:56;;;;;;;6.55;2.15;;;33.70;25.10;;;;;;5057293;28;20059;-76
2022/04/26 09:22:42;;;;;;;7.50;2.42;;;34.50;24.20;;;;;;5057022;28;20033;-78
2022/04/26 09:25:09;;;;;;;5.70;2.47;;;35.30;24.30;;;;;;5057460;28;20032;-76
2022/04/26 09:27:38;;;;;;;5.95;2.30;;;35.90;21.70;;;;;;5075498;28;20111;-76
2022/04/26 09:30:29;;;;;;;7.80;2.58;;;36.10;21.90;;;;;;5057221;28;20033;-77
2022/04/26 09:32:55;;;;;;;8.13;2.85;;;36.50;21.90;;;;;;5056100;28;20051;-77
2022/04/26 09:35:24;;;;;;;5.78;2.72;;;37.20;20.60;;;;;;5056571;28;20029;-75
2022/04/26 09:37:51;;;;;;;6.50;2.67;;;37.80;19.50;;;;;;5057328;28;20029;-77
2022/04/26 09:40:20;;;;;;;6.63;2.28;;;38.50;19.20;;;;;;5056849;28;20029;-78
2022/04/26 09:45:31;;;;;;;5.85;2.20;;;39.40;18.30;;;;;;5059602;28;20094;-77
2022/04/26 09:47:58;;;;;;;4.72;2.08;;;40.00;17.60;;;;;;5074295;28;20069;-77
2022/04/26 09:50:27;;;;;;;5.32;2.50;;;40.40;16.90;;;;;;5056760;28;20481;-77
2022/04/26 09:52:55;;;;;;;13.00;3.72;;;40.90;16.70;;;;;;5057309;28;20040;-77
2022/04/26 09:55:22;;;;;;;7.60;2.30;;;41.30;16.10;;;;;;5040091;28;20038;-78
2022/04/26 09:57:51;;;;;;;4.57;2.05;;;41.50;15.40;;;;;;5056922;28;20048;-76
2022/04/26 10:00:19;;;;;;;4.40;2.05;;;41.60;15.30;;;;;;5056504;28;20059;-75
2022/04/26 10:03:08;;;;;;;3.83;1.60;;;42.10;15.50;;;;;;5073797;28;20116;-75
2022/04/26 10:05:37;;;;;;;6.32;2.05;;;42.70;15.40;;;;;;5056615;28;20032;-75
2022/04/26 10:08:04;;;;;;;8.90;3.08;;;43.30;14.50;;;;;;5056866;28;20064;-77
2022/04/26 10:10:31;;;;;;;9.07;4.75;;;43.80;13.10;;;;;;5056370;28;20024;-75
2022/04/26 10:15:43;;;;;;;7.93;3.92;;;44.50;12.90;;;;;;5059092;28;20079;-77
2022/04/26 10:18:29;;;;;;;7.88;3.67;;;44.90;12.80;;;;;;5055808;28;20040;-75
2022/04/26 10:20:55;;;;;;;4.80;1.70;;;45.30;12.70;;;;;;5073953;28;20020;-77
2022/04/26 10:23:22;;;;;;;5.43;1.50;;;45.40;11.80;;;;;;5056716;28;20040;-76
2022/04/26 10:29:08;;;;;;;11.55;2.38;;;45.00;12.60;;;;;;5056691;28;20032;-76
2022/04/26 10:32:11;;;;;;;3.83;1.70;;;45.00;12.90;;;;;;5073136;28;20165;-75
2022/04/26 10:34:39;;;;;;;4.97;1.88;;;45.50;12.40;;;;;;5033190;28;20417;-75
2022/04/26 10:37:09;;;;;;;4.00;1.85;;;46.40;11.50;;;;;;5016292;28;20041;-77
2022/04/26 10:39:40;;;;;;;3.67;1.60;;;46.30;11.40;;;;;;5034261;28;20051;-77
2022/04/26 10:42:44;;;;;;;5.63;1.50;;;44.80;11.90;;;;;;5033674;28;20113;-77
2022/04/26 10:45:12;;;;;;;5.15;1.55;;;42.90;12.80;;;;;;5032458;28;20034;-77
2022/04/26 10:47:40;;;;;;;3.58;1.65;;;42.50;13.60;;;;;;5037269;28;20047;-75
2022/04/26 10:50:08;;;;;;;3.80;1.70;;;44.00;13.30;;;;;;5052345;28;20432;-76
2022/04/26 10:52:40;;;;;;;4.55;1.65;;;44.40;11.60;;;;;;5048100;28;20469;-76
2022/04/26 10:55:26;;;;;;;3.92;1.65;;;44.30;12.40;;;;;;5053479;28;20033;-75
2022/04/26 10:57:55;;;;;;;5.07;1.27;;;45.00;12.40;;;;;;5050523;28;20481;-76
2022/04/26 11:00:41;;;;;;;3.40;1.70;;;44.00;11.40;;;;;;5053310;28;20060;-75
2022/04/26 11:03:08;;;;;;;4.18;1.40;;;44.40;12.70;;;;;;5051152;28;20037;-77
2022/04/26 11:05:35;;;;;;;3.45;1.58;;;44.80;12.30;;;;;;5051982;28;20029;-77
2022/04/26 11:08:04;;;;;;;4.88;1.60;;;45.60;10.80;;;;;;5052313;28;20067;-75
2022/04/26 11:13:35;;;;;;;2.87;1.20;;;46.30;11.00;;;;;;5045313;28;20055;-75
2022/04/26 11:16:20;;;;;;;3.65;1.20;;;44.10;11.50;;;;;;5050792;28;20472;-77
2022/04/26 11:18:46;;;;;;;3.42;1.27;;;41.70;13.10;;;;;;5052909;28;20072;-75
2022/04/26 11:21:13;;;;;;;2.90;1.10;;;39.80;12.90;;;;;;5052918;28;20100;-75
2022/04/26 11:29:27;;;;;;;8.65;2.13;;;40.00;14.50;;;;;;5053128;28;20047;-75
2022/04/26 11:31:54;;;;;;;6.15;1.40;;;40.80;14.10;;;;;;5052717;28;20036;-75
2022/04/26 11:34:40;;;;;;;4.85;1.00;;;40.50;12.90;;;;;;5045263;28;20052;-77
2022/04/26 11:37:09;;;;;;;3.65;1.23;;;39.60;13.60;;;;;;5072393;28;20044;-76
2022/04/26 11:39:41;;;;;;;3.67;1.17;;;37.90;14.20;;;;;;5072908;28;20031;-76
2022/04/26 11:42:07;;;;;;;1.95;0.95;;;36.80;15.70;;;;;;5054392;28;20060;-76
2022/04/26 11:44:35;;;;;;;7.00;1.40;;;35.70;16.30;;;;;;5038322;28;20070;-76
2022/04/26 11:47:01;;;;;;;3.42;1.27;;;37.20;16.90;;;;;;5038045;28;20078;-77
2022/04/26 11:49:46;;;;;;;3.17;1.13;;;39.40;14.90;;;;;;5071945;28;20029;-76
2022/04/26 11:52:12;;;;;;;2.47;1.00;;;41.10;14.20;;;;;;5054412;28;20043;-77
2022/04/26 11:54:38;;;;;;;2.40;0.90;;;42.10;12.80;;;;;;5054845;28;20055;-76
2022/04/26 11:57:05;;;;;;;2.97;1.25;;;42.60;12.50;;;;;;5072557;28;20037;-76
2022/04/26 11:59:34;;;;;;;4.13;1.45;;;41.40;12.70;;;;;;5054673;28;20036;-75
2022/04/26 12:02:01;;;;;;;4.35;1.30;;;39.80;13.60;;;;;;5072199;28;20036;-77
2022/04/26 12:04:28;;;;;;;5.47;2.63;;;38.70;14.00;;;;;;5053694;28;20028;-76
2022/04/26 12:06:57;;;;;;;2.95;1.10;;;39.40;14.10;;;;;;5054311;28;20028;-76
2022/04/26 12:09:24;;;;;;;2.83;1.20;;;39.00;14.20;;;;;;5054508;28;20021;-77
2022/04/26 12:12:05;;;;;;;7.57;1.45;;;38.30;14.40;;;;;;5072083;28;20097;-76
2022/04/26 12:14:31;;;;;;;3.72;1.10;;;39.40;14.80;;;;;;5055395;28;20064;-77
2022/04/26 12:16:58;;;;;;;4.63;1.33;;;41.70;11.90;;;;;;5054243;28;20059;-76
2022/04/26 12:19:50;;;;;;;3.08;1.20;;;40.20;13.50;;;;;;5053953;28;20029;-76
2022/04/26 12:22:25;;;;;;;3.30;1.30;;;38.00;15.20;;;;;;5055189;28;20060;-76
2022/04/26 12:24:52;;;;;;;;;;;36.70;15.60;;;;;;5056445;28;20072;-76
2022/04/26 12:27:22;;;;;;;3.67;1.30;;;36.70;15.90;;;;;;5054189;28;21280;-76
2022/04/26 12:29:53;;;;;;;5.00;1.27;;;38.40;15.30;;;;;;5054863;28;20040;-76
2022/04/26 12:32:27;;;;;;;2.25;0.80;;;38.70;13.90;;;;;;5054586;28;20410;-77
2022/04/26 12:35:12;;;;;;;2.80;1.00;;;38.10;14.30;;;;;;5054377;28;20085;-76
2022/04/26 12:37:40;;;;;;;2.88;1.00;;;37.80;14.50;;;;;;5037773;28;20055;-75
2022/04/26 12:40:27;;;;;;;3.08;1.08;;;39.40;14.00;;;;;;5072147;28;20107;-77
2022/04/26 12:42:56;;;;;;;2.85;1.10;;;40.20;13.10;;;;;;5054430;28;20060;-75
2022/04/26 12:45:23;;;;;;;5.47;1.20;;;39.00;14.00;;;;;;5054330;28;20029;-77
2022/04/26 12:51:33;;;;;;;2.38;1.00;;;36.40;16.00;;;;;;5056641;28;20105;-76
2022/04/26 12:54:12;;;;;;;3.63;1.10;;;35.70;16.10;;;;;;5056132;28;20075;-76
2022/04/26 12:56:40;;;;;;;4.90;1.20;;;34.70;16.80;;;;;;5075682;28;20472;-76
2022/04/26 13:02:01;;;;;;;3.83;1.30;;;33.10;18.50;;;;;;5060537;28;20036;-76
2022/04/26 13:04:27;;;;;;;3.08;0.98;;;32.60;18.60;;;;;;5056944;28;20050;-76
2022/04/26 13:06:53;;;;;;;10.35;3.10;;;32.80;18.40;;;;;;5057470;28;20400;-77
2022/04/26 13:09:19;;;;;;;6.05;1.77;;;32.90;18.60;;;;;;5057848;28;20056;-76
2022/04/26 13:11:45;;;;;;;3.45;1.05;;;32.80;18.40;;;;;;5057090;28;20071;-77
2022/04/26 13:14:11;;;;;;;12.98;1.95;;;32.30;18.80;;;;;;5076034;28;20110;-76
2022/04/26 13:16:38;;;;;;;2.70;1.00;;;31.80;19.30;;;;;;5075211;28;20111;-78
2022/04/26 13:19:04;;;;;;;4.55;1.33;;;31.50;19.60;;;;;;5056939;28;20049;-77
2022/04/26 13:21:30;;;;;;;2.65;1.02;;;31.70;19.80;;;;;;5075139;28;20109;-76
2022/04/26 13:23:57;;;;;;;4.57;1.00;;;31.50;20.00;;;;;;5075409;28;20086;-77
2022/04/26 13:26:23;;;;;;;6.80;1.20;;;31.40;20.30;;;;;;5057147;28;20036;-76
2022/04/26 13:28:49;;;;;;;10.32;1.33;;;31.20;20.50;;;;;;5041129;28;20448;-77
2022/04/26 13:31:16;;;;;;;3.88;1.00;;;30.90;20.70;;;;;;5057049;28;20107;-76
2022/04/26 13:33:45;;;;;;;4.40;1.40;;;30.40;20.90;;;;;;5074274;28;20098;-76
2022/04/26 13:36:11;;;;;;;4.53;1.48;;;30.00;21.20;;;;;;5056854;28;20507;-78
2022/04/26 13:38:38;;;;;;;4.57;1.90;;;29.70;21.80;;;;;;5040797;28;20127;-77
2022/04/26 13:41:04;;;;;;;6.03;1.70;;;29.30;23.00;;;;;;5056785;28;20435;-76
2022/04/26 13:43:30;;;;;;;3.63;1.13;;;29.00;23.20;;;;;;5040516;28;20029;-77
2022/04/26 13:45:56;;;;;;;5.03;1.38;;;28.70;23.50;;;;;;5074720;28;20039;-76
2022/04/26 13:48:23;;;;;;;3.55;1.25;;;28.40;23.80;;;;;;5075310;28;20087;-76
2022/04/26 13:50:50;;;;;;;7.28;1.40;;;28.30;24.40;;;;;;5073729;28;20083;-78
2022/04/26 13:53:16;;;;;;;5.28;1.50;;;28.00;25.00;;;;;;5057038;28;20119;-76
2022/04/26 13:55:42;;;;;;;5.28;1.20;;;28.30;24.50;;;;;;5056634;28;20049;-78
2022/04/26 13:58:10;;;;;;;3.38;1.00;;;28.90;23.90;;;;;;5075311;28;20044;-78
2022/04/26 14:00:36;;;;;;;5.32;1.50;;;29.50;23.00;;;;;;5056813;28;20033;-78
2022/04/26 14:03:03;;;;;;;2.78;1.00;;;29.30;23.00;;;;;;5075156;28;20399;-77
2022/04/26 14:05:30;;;;;;;4.57;1.17;;;29.00;22.90;;;;;;5055414;28;20034;-76
2022/04/26 14:07:56;;;;;;;5.97;1.50;;;29.00;23.40;;;;;;5074965;28;20144;-77
2022/04/26 14:10:23;;;;;;;3.17;1.00;;;31.40;22.30;;;;;;5056416;28;20326;-77
2022/04/26 14:12:49;;;;;;;3.47;1.00;;;34.10;18.70;;;;;;5074641;28;20047;-77
2022/04/26 14:23:48;;;;;;;6.47;1.52;;;39.10;15.60;;;;;;5059217;28;20155;-75
2022/04/26 14:26:15;;;;;;;6.15;1.05;;;40.10;14.80;;;;;;5056217;28;20107;-78
2022/04/26 14:28:43;;;;;;;1.95;0.95;;;40.90;13.90;;;;;;5074685;28;20124;-77
2022/04/26 14:31:10;;;;;;;3.35;1.10;;;41.60;13.60;;;;;;5073847;28;20060;-76
2022/04/26 14:33:36;;;;;;;2.70;1.20;;;42.20;13.40;;;;;;5056026;28;20451;-77
2022/04/26 14:36:02;;;;;;;5.18;2.58;;;42.60;12.70;;;;;;5054899;28;20605;-76
2022/04/26 14:38:28;;;;;;;3.47;1.25;;;43.00;12.90;;;;;;5074424;28;20098;-75
2022/04/26 14:40:55;;;;;;;5.03;1.20;;;43.30;12.50;;;;;;5055735;28;20504;-76
2022/04/26 14:43:21;;;;;;;5.13;1.20;;;41.70;13.00;;;;;;5056066;28;20086;-75
2022/04/26 14:45:47;;;;;;;4.85;1.40;;;39.70;13.70;;;;;;5055604;28;20374;-75
2022/04/26 14:48:16;;;;;;;7.60;1.60;;;38.10;15.30;;;;;;5056010;28;20052;-77
2022/04/26 14:50:43;;;;;;;4.85;1.75;;;37.40;15.60;;;;;;5038175;28;20067;-77
2022/04/26 14:53:10;;;;;;;2.30;1.17;;;36.70;16.10;;;;;;5056195;28;20463;-75
2022/04/26 14:55:36;;;;;;;4.10;1.20;;;36.10;16.80;;;;;;5073295;28;20052;-77
2022/04/26 14:58:03;;;;;;;2.78;1.08;;;35.00;17.60;;;;;;5073900;28;20045;-76
2022/04/26 15:00:29;;;;;;;5.65;1.13;;;33.90;18.10;;;;;;5055307;28;20078;-76
2022/04/26 15:02:56;;;;;;;6.85;1.92;;;33.20;19.00;;;;;;5055712;28;20131;-78
2022/04/26 15:05:23;;;;;;;2.22;1.05;;;33.30;19.10;;;;;;5050452;28;20065;-76
2022/04/26 15:10:33;;;;;;;3.58;1.02;;;32.80;19.10;;;;;;5036289;28;20044;-76
2022/04/26 15:18:29;;;;;;;4.00;1.10;;;31.20;21.20;;;;;;5051031;28;20044;-77
2022/04/26 15:20:55;;;;;;;3.58;1.30;;;31.20;21.30;;;;;;5071904;28;20036;-76
2022/04/26 15:23:22;;;;;;;7.07;1.60;;;30.90;21.30;;;;;;5031817;28;20041;-78
2022/04/26 15:25:53;;;;;;;5.25;1.45;;;30.40;22.10;;;;;;5033726;28;20037;-77
2022/04/26 15:28:38;;;;;;;6.20;2.22;;;29.80;22.10;;;;;;5035506;28;20393;-76
2022/04/26 15:31:06;;;;;;;5.28;1.88;;;29.30;23.70;;;;;;5034783;28;20036;-78
2022/04/26 15:33:32;;;;;;;8.15;1.27;;;28.80;24.50;;;;;;5049738;28;20151;-76
2022/04/26 15:35:59;;;;;;;4.47;1.00;;;28.40;24.40;;;;;;5033917;28;20032;-76
2022/04/26 15:38:27;;;;;;;5.38;1.20;;;28.00;24.90;;;;;;5043697;28;20127;-78
2022/04/26 15:40:55;;;;;;;7.18;1.13;;;27.60;25.00;;;;;;5014642;28;20025;-76
2022/04/26 15:43:21;;;;;;;3.38;0.93;;;27.40;25.40;;;;;;5015395;28;20041;-78
2022/04/26 15:45:47;;;;;;;7.13;2.10;;;27.10;25.60;;;;;;5032576;28;20029;-75
2022/04/26 15:48:13;;;;;;;5.47;1.88;;;27.00;26.00;;;;;;5031644;28;20441;-78
2022/04/26 15:50:41;;;;;;;7.63;1.60;;;27.00;25.80;;;;;;5040877;28;20119;-78
2022/04/26 15:53:08;;;;;;;9.48;1.70;;;27.00;26.40;;;;;;5034953;28;20037;-76
2022/04/26 15:55:35;;;;;;;6.53;1.27;;;26.80;26.60;;;;;;5051029;28;20021;-75
2022/04/26 15:58:01;;;;;;;7.95;1.65;;;26.60;28.00;;;;;;5051606;28;20505;-77
2022/04/26 16:00:27;;;;;;;4.53;1.52;;;26.40;29.00;;;;;;5052104;28;20033;-78
2022/04/26 16:02:54;;;;;;;4.32;1.60;;;26.30;28.10;;;;;;5048965;28;20029;-78
2022/04/26 16:05:20;;;;;;;4.82;1.60;;;26.30;28.80;;;;;;5051184;28;20036;-75
2022/04/26 16:07:46;;;;;;;8.32;1.95;;;26.20;29.00;;;;;;5048180;28;20041;-76
2022/04/26 16:21:11;;;;;;;7.70;2.00;;;25.40;30.70;;;;;;5027063;28;20102;-76
2022/04/26 16:23:38;;;;;;;5.60;2.45;;;25.30;31.10;;;;;;5034154;28;20057;-78
2022/04/26 16:26:06;;;;;;;7.88;4.22;;;25.20;32.30;;;;;;5047213;28;20402;-78
2022/04/26 16:28:34;;;;;;;15.70;4.07;;;25.10;32.00;;;;;;5016502;28;20047;-78
2022/04/26 16:31:02;;;;;;;13.23;4.60;;;25.00;32.60;;;;;;5036175;28;20100;-78
2022/04/26 16:33:28;;;;;;;10.15;3.30;;;25.00;33.30;;;;;;5018866;28;20535;-78
2022/04/26 16:35:54;;;;;;;9.55;4.38;;;24.80;33.20;;;;;;5035283;28;20037;-75
2022/04/26 16:38:21;;;;;;;10.75;4.82;;;24.70;33.40;;;;;;5018868;28;20048;-75
2022/04/26 16:41:07;;;;;;;5.40;2.40;;;24.60;32.90;;;;;;4996733;28;20398;-76
2022/04/26 16:43:33;;;;;;;8.88;4.53;;;24.50;33.20;;;;;;5021744;28;20033;-78
2022/04/26 16:46:01;;;;;;;8.43;3.50;;;24.50;33.60;;;;;;5018149;28;20057;-78
2022/04/26 16:48:28;;;;;;;7.13;4.07;;;24.40;33.90;;;;;;5018515;28;20092;-78
2022/04/26 16:50:54;;;;;;;12.45;4.60;;;24.30;34.10;;;;;;5017144;28;20033;-76
2022/04/26 16:53:20;;;;;;;69.43;25.40;;;24.20;34.40;;;;;;5036497;28;20455;-79
2022/04/26 16:55:47;;;;;;;50.60;22.65;;;23.90;34.70;;;;;;5017940;28;20021;-78
2022/04/26 16:58:15;;;;;;;24.65;12.93;;;23.70;35.00;;;;;;5020229;28;20068;-75
2022/04/26 17:00:41;;;;;;;24.88;14.07;;;23.50;35.60;;;;;;5018279;28;20030;-78
2022/04/26 17:03:08;;;;;;;22.83;13.38;;;23.30;36.10;;;;;;5017682;28;20403;-75
2022/04/26 17:05:34;;;;;;;15.98;7.85;;;23.00;36.30;;;;;;5013582;28;20619;-78
2022/04/26 17:08:00;;;;;;;9.30;4.57;;;22.90;36.50;;;;;;5000117;28;20077;-76
2022/04/26 17:10:26;;;;;;;9.13;4.18;;;22.70;36.90;;;;;;5016686;28;20033;-78
2022/04/26 17:12:52;;;;;;;8.90;3.15;;;22.60;37.30;;;;;;5017790;28;20501;-79
2022/04/26 17:15:39;;;;;;;30.88;20.02;;;22.40;37.60;;;;;;5038115;28;20029;-76
2022/04/26 17:18:06;;;;;;;17.08;7.55;;;22.10;37.50;;;;;;5043711;28;20421;-75
2022/04/26 17:20:34;;;;;;;10.73;5.93;;;22.00;37.80;;;;;;5016780;28;20033;-75
2022/04/26 17:23:03;;;;;;;12.90;5.07;;;21.80;38.30;;;;;;5017805;28;20482;-75
2022/04/26 17:25:30;;;;;;;14.43;6.40;;;21.70;38.60;;;;;;5017507;28;20100;-75
2022/04/26 17:27:59;;;;;;;17.70;7.18;;;21.50;38.90;;;;;;5017872;28;20099;-75
2022/04/26 17:30:25;;;;;;;15.20;5.43;;;21.40;39.30;;;;;;5035126;28;20470;-78
2022/04/26 17:32:51;;;;;;;10.55;4.35;;;21.40;39.80;;;;;;5019418;28;20050;-78
2022/04/26 17:35:17;;;;;;;11.05;4.93;;;21.20;40.00;;;;;;5037318;28;20029;-78
2022/04/26 17:37:43;;;;;;;16.42;5.40;;;21.10;40.40;;;;;;5054647;28;20045;-75
2022/04/26 17:40:12;;;;;;;18.40;7.18;;;21.00;40.80;;;;;;5054304;28;20142;-78